This is the latest recevied weather packets stored in our database for station/object KB9PVH-3. If no packets are shown the sender has not sent any weather packets the latest 10 day(s).
| Time | Temp. | Humidity | Pressure | Rain* | Wind** | Luminosity | Snow |
|---|---|---|---|---|---|---|---|
| 1777816321 | 12.22° C | 61% | 1011.3 hPa | 0 mm | - | - | - |
| 1777815271 | 13.33° C | 56% | 1011.6 hPa | 0 mm | - | - | - |
| 1777814221 | 11.67° C | 59% | 1011.8 hPa | 0 mm | - | - | - |
| 1777813170 | 11.67° C | 57% | 1012 hPa | 0 mm | - | - | - |
| 1777812121 | 10° C | 59% | 1012 hPa | 0 mm | - | - | - |
| 1777811071 | 10° C | 58% | 1012 hPa | 0 mm | - | - | - |
| 1777810020 | 10° C | 56% | 1011.9 hPa | 0 mm | - | - | - |
| 1777808970 | 9.44° C | 57% | 1011.8 hPa | 0 mm | - | - | - |
| 1777807921 | 8.89° C | 57% | 1012.2 hPa | 0 mm | - | - | - |
| 1777806870 | 8.89° C | 57% | 1012 hPa | 0 mm | - | - | - |
| 1777805821 | 8.89° C | 57% | 1012.1 hPa | 0 mm | - | - | - |
| 1777804772 | 8.89° C | 56% | 1012.2 hPa | 0 mm | - | - | - |
| 1777803721 | 8.33° C | 57% | 1012.5 hPa | 0 mm | - | - | - |
| 1777802672 | 8.33° C | 57% | 1012.6 hPa | 0 mm | - | - | - |
| 1777801622 | 8.89° C | 57% | 1012.7 hPa | 0 mm | - | - | - |
| 1777800571 | 8.89° C | 55% | 1012.9 hPa | 0 mm | - | - | - |
| 1777799520 | 8.89° C | 55% | 1012.8 hPa | 0 mm | - | - | - |
| 1777798471 | 8.89° C | 55% | 1012.8 hPa | 0 mm | - | - | - |
| 1777797420 | 8.89° C | 54% | 1012.8 hPa | 0 mm | - | - | - |
| 1777796370 | 8.89° C | 54% | 1013.3 hPa | 0 mm | - | - | - |
| 1777795320 | 8.89° C | 54% | 1013.2 hPa | 0 mm | - | - | - |
| 1777794270 | 8.33° C | 54% | 1013.3 hPa | 0 mm | - | - | - |
| 1777793220 | 8.89° C | 53% | 1013.3 hPa | 0 mm | - | - | - |
| 1777792170 | 8.89° C | 54% | 1013.6 hPa | 0 mm | - | - | - |
| 1777791120 | 9.44° C | 52% | 1013.6 hPa | 0 mm | - | - | - |
* Rain latest hour (hover to see other rain measurements)
** Current wind speed in m/s (hover to see current wind gust speed)